sensor_id;sensor_type;location;lat;lon;timestamp;pressure;altitude;pressure_sealevel;temperature;humidity
7754;BME280;3921;42.266;23.122;2023-01-26T00:01:58;95737.63;;;1.37;70.23
7754;BME280;3921;42.266;23.122;2023-01-26T00:04:25;96032.22;;;3.55;69.70
7754;BME280;3921;42.266;23.122;2023-01-26T00:06:52;95853.31;;;2.14;70.13
7754;BME280;3921;42.266;23.122;2023-01-26T00:09:19;95915.34;;;2.68;70.09
7754;BME280;3921;42.266;23.122;2023-01-26T00:11:46;95535.84;;;0.20;70.47
7754;BME280;3921;42.266;23.122;2023-01-26T00:14:13;95638.38;;;0.79;70.69
7754;BME280;3921;42.266;23.122;2023-01-26T00:16:40;95698.84;;;1.37;70.79
7754;BME280;3921;42.266;23.122;2023-01-26T00:19:08;96000.25;;;3.10;70.83
7754;BME280;3921;42.266;23.122;2023-01-26T00:21:35;95447.16;;;-0.44;70.15
7754;BME280;3921;42.266;23.122;2023-01-26T00:24:02;95452.28;;;-0.15;70.17
7754;BME280;3921;42.266;23.122;2023-01-26T00:26:29;95920.44;;;2.71;70.83
7754;BME280;3921;42.266;23.122;2023-01-26T00:28:56;95601.56;;;0.87;69.73
7754;BME280;3921;42.266;23.122;2023-01-26T00:31:26;95897.75;;;2.60;70.54
7754;BME280;3921;42.266;23.122;2023-01-26T00:33:54;95553.41;;;0.52;70.43
7754;BME280;3921;42.266;23.122;2023-01-26T00:36:23;95820.66;;;2.27;69.52
7754;BME280;3921;42.266;23.122;2023-01-26T00:38:50;95583.75;;;0.73;69.98
7754;BME280;3921;42.266;23.122;2023-01-26T00:41:17;95670.34;;;1.23;70.27
7754;BME280;3921;42.266;23.122;2023-01-26T00:44:01;95934.00;;;2.82;70.60
7754;BME280;3921;42.266;23.122;2023-01-26T00:46:28;95921.13;;;2.67;70.81
7754;BME280;3921;42.266;23.122;2023-01-26T00:48:55;95887.75;;;2.32;70.47
7754;BME280;3921;42.266;23.122;2023-01-26T00:51:23;95467.97;;;-0.13;69.96
7754;BME280;3921;42.266;23.122;2023-01-26T00:53:50;95666.88;;;0.92;70.11
7754;BME280;3921;42.266;23.122;2023-01-26T00:56:17;96022.53;;;3.09;70.69
7754;BME280;3921;42.266;23.122;2023-01-26T00:59:04;95863.38;;;2.19;71.04
7754;BME280;3921;42.266;23.122;2023-01-26T01:01:32;95869.97;;;2.18;71.13
7754;BME280;3921;42.266;23.122;2023-01-26T01:03:59;96026.47;;;3.02;71.73
7754;BME280;3921;42.266;23.122;2023-01-26T01:06:27;95647.44;;;0.79;71.36
7754;BME280;3921;42.266;23.122;2023-01-26T01:08:54;95785.63;;;1.66;70.62
7754;BME280;3921;42.266;23.122;2023-01-26T01:11:21;95874.88;;;2.17;71.39
7754;BME280;3921;42.266;23.122;2023-01-26T01:13:47;95747.66;;;1.40;71.09
7754;BME280;3921;42.266;23.122;2023-01-26T01:16:15;95907.25;;;2.21;70.52
7754;BME280;3921;42.266;23.122;2023-01-26T01:18:42;95941.91;;;2.45;71.25
7754;BME280;3921;42.266;23.122;2023-01-26T01:21:11;95987.88;;;2.86;71.32
7754;BME280;3921;42.266;23.122;2023-01-26T01:23:40;95993.72;;;2.87;71.67
7754;BME280;3921;42.266;23.122;2023-01-26T01:26:08;95926.50;;;2.54;71.35
7754;BME280;3921;42.266;23.122;2023-01-26T01:28:36;95532.31;;;-0.10;71.02
7754;BME280;3921;42.266;23.122;2023-01-26T01:31:03;95548.56;;;0.07;70.55
7754;BME280;3921;42.266;23.122;2023-01-26T01:33:30;95767.97;;;1.31;70.74
7754;BME280;3921;42.266;23.122;2023-01-26T01:35:57;95774.94;;;1.41;71.32
7754;BME280;3921;42.266;23.122;2023-01-26T01:38:25;95439.63;;;-0.47;70.76
7754;BME280;3921;42.266;23.122;2023-01-26T01:40:54;95978.69;;;2.82;71.06
7754;BME280;3921;42.266;23.122;2023-01-26T01:43:22;95967.44;;;2.41;72.04
7754;BME280;3921;42.266;23.122;2023-01-26T01:45:50;95414.53;;;-0.59;71.06
7754;BME280;3921;42.266;23.122;2023-01-26T01:48:21;95801.84;;;1.81;71.34
7754;BME280;3921;42.266;23.122;2023-01-26T01:50:52;95962.31;;;2.87;71.20
7754;BME280;3921;42.266;23.122;2023-01-26T01:53:22;95881.88;;;2.55;70.29
7754;BME280;3921;42.266;23.122;2023-01-26T01:55:54;95917.34;;;2.78;70.55
7754;BME280;3921;42.266;23.122;2023-01-26T01:58:22;95749.78;;;1.80;70.00
7754;BME280;3921;42.266;23.122;2023-01-26T02:00:49;95977.28;;;2.90;70.76
7754;BME280;3921;42.266;23.122;2023-01-26T02:03:16;95957.22;;;2.84;70.24
7754;BME280;3921;42.266;23.122;2023-01-26T02:05:51;95605.97;;;0.72;71.29
7754;BME280;3921;42.266;23.122;2023-01-26T02:08:21;95736.53;;;1.54;71.63
7754;BME280;3921;42.266;23.122;2023-01-26T02:10:55;95330.91;;;-0.98;70.42
7754;BME280;3921;42.266;23.122;2023-01-26T02:13:25;95763.25;;;1.63;71.15
7754;BME280;3921;42.266;23.122;2023-01-26T02:15:53;95916.00;;;2.62;70.88
7754;BME280;3921;42.266;23.122;2023-01-26T02:18:20;95638.38;;;0.79;71.07
7754;BME280;3921;42.266;23.122;2023-01-26T02:20:49;95406.78;;;-0.46;70.92
7754;BME280;3921;42.266;23.122;2023-01-26T02:23:25;95962.84;;;2.79;71.12
7754;BME280;3921;42.266;23.122;2023-01-26T02:26:15;95647.19;;;1.21;70.56
7754;BME280;3921;42.266;23.122;2023-01-26T02:28:43;95794.69;;;2.16;70.96
7754;BME280;3921;42.266;23.122;2023-01-26T02:31:12;95555.09;;;0.78;70.05
7754;BME280;3921;42.266;23.122;2023-01-26T02:33:39;95482.84;;;0.36;70.19
7754;BME280;3921;42.266;23.122;2023-01-26T02:36:10;95682.72;;;1.48;70.17
7754;BME280;3921;42.266;23.122;2023-01-26T02:38:45;95790.19;;;2.04;70.28
7754;BME280;3921;42.266;23.122;2023-01-26T02:41:16;95764.75;;;2.10;70.84
7754;BME280;3921;42.266;23.122;2023-01-26T02:44:05;95602.97;;;1.06;69.44
7754;BME280;3921;42.266;23.122;2023-01-26T02:46:33;95698.75;;;1.59;70.07
7754;BME280;3921;42.266;23.122;2023-01-26T02:49:00;95409.47;;;0.10;69.13
7754;BME280;3921;42.266;23.122;2023-01-26T02:51:43;95769.22;;;2.20;68.98
7754;BME280;3921;42.266;23.122;2023-01-26T02:54:10;95847.63;;;2.71;69.86
7754;BME280;3921;42.266;23.122;2023-01-26T02:56:59;95885.53;;;2.93;69.73
7754;BME280;3921;42.266;23.122;2023-01-26T02:59:25;95787.94;;;2.12;70.05
7754;BME280;3921;42.266;23.122;2023-01-26T03:01:55;95904.94;;;2.78;70.05
7754;BME280;3921;42.266;23.122;2023-01-26T03:04:22;95768.38;;;2.20;70.23
7754;BME280;3921;42.266;23.122;2023-01-26T03:06:49;95720.56;;;1.97;70.08
7754;BME280;3921;42.266;23.122;2023-01-26T03:09:16;95760.31;;;2.27;70.09
7754;BME280;3921;42.266;23.122;2023-01-26T03:11:43;95875.13;;;2.77;70.37
7754;BME280;3921;42.266;23.122;2023-01-26T03:14:12;95711.06;;;1.83;70.50
7754;BME280;3921;42.266;23.122;2023-01-26T03:16:40;95293.56;;;-0.61;69.84
7754;BME280;3921;42.266;23.122;2023-01-26T03:19:09;95622.09;;;1.37;69.84
7754;BME280;3921;42.266;23.122;2023-01-26T03:21:54;95728.44;;;2.10;69.52
7754;BME280;3921;42.266;23.122;2023-01-26T03:24:47;95738.38;;;2.12;69.33
7754;BME280;3921;42.266;23.122;2023-01-26T03:27:39;95844.00;;;2.88;69.40
7754;BME280;3921;42.266;23.122;2023-01-26T03:30:10;95721.91;;;2.12;69.09
7754;BME280;3921;42.266;23.122;2023-01-26T03:35:33;95763.16;;;2.39;68.50
7754;BME280;3921;42.266;23.122;2023-01-26T03:38:06;95727.69;;;2.13;68.60
7754;BME280;3921;42.266;23.122;2023-01-26T03:40:33;95837.13;;;2.79;69.02
7754;BME280;3921;42.266;23.122;2023-01-26T03:43:17;95829.50;;;2.73;69.57
7754;BME280;3921;42.266;23.122;2023-01-26T03:46:03;95649.22;;;1.59;69.87
7754;BME280;3921;42.266;23.122;2023-01-26T03:48:48;95699.84;;;1.95;69.94
7754;BME280;3921;42.266;23.122;2023-01-26T03:51:32;95823.63;;;2.70;69.98
7754;BME280;3921;42.266;23.122;2023-01-26T03:54:16;95802.41;;;2.52;70.44
7754;BME280;3921;42.266;23.122;2023-01-26T03:57:00;95809.78;;;2.78;69.72
7754;BME280;3921;42.266;23.122;2023-01-26T03:59:27;95799.16;;;2.82;69.40
7754;BME280;3921;42.266;23.122;2023-01-26T04:02:05;95529.44;;;1.02;69.58
7754;BME280;3921;42.266;23.122;2023-01-26T04:04:49;95824.69;;;2.78;69.75
7754;BME280;3921;42.266;23.122;2023-01-26T04:07:34;95570.72;;;1.30;69.84
7754;BME280;3921;42.266;23.122;2023-01-26T04:10:18;95690.16;;;2.01;69.42
7754;BME280;3921;42.266;23.122;2023-01-26T04:12:45;95780.84;;;2.50;69.43
7754;BME280;3921;42.266;23.122;2023-01-26T04:15:29;95709.41;;;2.09;70.08
7754;BME280;3921;42.266;23.122;2023-01-26T04:18:15;95728.19;;;2.30;69.99
7754;BME280;3921;42.266;23.122;2023-01-26T04:21:01;95446.84;;;0.44;70.51
7754;BME280;3921;42.266;23.122;2023-01-26T04:23:45;95793.41;;;2.54;70.90
7754;BME280;3921;42.266;23.122;2023-01-26T04:26:12;95593.31;;;1.39;70.25
7754;BME280;3921;42.266;23.122;2023-01-26T04:28:39;95786.88;;;2.58;70.51
7754;BME280;3921;42.266;23.122;2023-01-26T04:31:06;95685.34;;;1.78;70.78
7754;BME280;3921;42.266;23.122;2023-01-26T04:33:35;95794.78;;;2.46;71.02
7754;BME280;3921;42.266;23.122;2023-01-26T04:36:03;95691.66;;;1.96;70.74
7754;BME280;3921;42.266;23.122;2023-01-26T04:38:30;95175.50;;;-1.25;70.42
7754;BME280;3921;42.266;23.122;2023-01-26T04:40:57;95360.13;;;-0.14;70.60
7754;BME280;3921;42.266;23.122;2023-01-26T04:43:25;95585.44;;;1.25;70.26
7754;BME280;3921;42.266;23.122;2023-01-26T04:45:59;95661.25;;;1.74;70.24
7754;BME280;3921;42.266;23.122;2023-01-26T04:48:26;95775.88;;;2.50;69.87
7754;BME280;3921;42.266;23.122;2023-01-26T04:50:56;95701.06;;;1.80;70.55
7754;BME280;3921;42.266;23.122;2023-01-26T04:53:23;95784.59;;;2.37;70.64
7754;BME280;3921;42.266;23.122;2023-01-26T04:55:50;95761.84;;;2.23;70.31
7754;BME280;3921;42.266;23.122;2023-01-26T04:58:17;95436.38;;;0.26;70.58
7754;BME280;3921;42.266;23.122;2023-01-26T05:00:49;95814.06;;;2.55;69.77
7754;BME280;3921;42.266;23.122;2023-01-26T05:03:16;95281.00;;;-0.68;69.69
7754;BME280;3921;42.266;23.122;2023-01-26T05:05:44;95239.56;;;-1.02;69.32
7754;BME280;3921;42.266;23.122;2023-01-26T05:08:12;95495.13;;;0.86;69.74
7754;BME280;3921;42.266;23.122;2023-01-26T05:10:39;95588.28;;;1.38;68.85
7754;BME280;3921;42.266;23.122;2023-01-26T05:13:06;95345.44;;;0.16;68.63
7754;BME280;3921;42.266;23.122;2023-01-26T05:15:33;95545.28;;;1.34;68.15
7754;BME280;3921;42.266;23.122;2023-01-26T05:18:00;95451.59;;;0.64;68.08
7754;BME280;3921;42.266;23.122;2023-01-26T05:20:27;95616.53;;;1.70;67.96
7754;BME280;3921;42.266;23.122;2023-01-26T05:22:54;95463.50;;;0.75;68.18
7754;BME280;3921;42.266;23.122;2023-01-26T05:25:23;95754.63;;;2.58;68.83
7754;BME280;3921;42.266;23.122;2023-01-26T05:27:50;95673.91;;;2.10;67.77
7754;BME280;3921;42.266;23.122;2023-01-26T05:30:18;95773.88;;;2.65;67.86
7754;BME280;3921;42.266;23.122;2023-01-26T05:32:45;95568.38;;;1.33;67.36
7754;BME280;3921;42.266;23.122;2023-01-26T05:35:12;95558.03;;;1.46;67.59
7754;BME280;3921;42.266;23.122;2023-01-26T05:37:41;95754.06;;;2.66;67.69
7754;BME280;3921;42.266;23.122;2023-01-26T05:40:11;95643.44;;;1.86;67.61
7754;BME280;3921;42.266;23.122;2023-01-26T05:42:41;95597.09;;;1.55;67.44
7754;BME280;3921;42.266;23.122;2023-01-26T05:45:08;95760.47;;;2.60;67.44
7754;BME280;3921;42.266;23.122;2023-01-26T05:47:35;95527.47;;;0.92;67.28
7754;BME280;3921;42.266;23.122;2023-01-26T05:50:04;95766.56;;;2.41;67.97
7754;BME280;3921;42.266;23.122;2023-01-26T05:52:31;95669.75;;;1.82;67.45
7754;BME280;3921;42.266;23.122;2023-01-26T05:54:58;95231.66;;;-0.68;67.03
7754;BME280;3921;42.266;23.122;2023-01-26T05:57:27;95484.19;;;0.79;67.59
7754;BME280;3921;42.266;23.122;2023-01-26T05:59:55;95766.28;;;2.60;67.77
7754;BME280;3921;42.266;23.122;2023-01-26T06:02:23;95412.69;;;0.33;68.09
7754;BME280;3921;42.266;23.122;2023-01-26T06:04:51;95450.16;;;0.45;67.72
7754;BME280;3921;42.266;23.122;2023-01-26T06:07:18;95591.66;;;1.40;67.30
7754;BME280;3921;42.266;23.122;2023-01-26T06:09:45;95269.94;;;-0.54;67.30
7754;BME280;3921;42.266;23.122;2023-01-26T06:12:14;95261.94;;;-0.47;67.62
7754;BME280;3921;42.266;23.122;2023-01-26T06:14:41;95441.63;;;0.62;67.67
7754;BME280;3921;42.266;23.122;2023-01-26T06:17:10;95734.41;;;2.46;67.98
7754;BME280;3921;42.266;23.122;2023-01-26T06:19:38;95788.00;;;2.67;67.95
7754;BME280;3921;42.266;23.122;2023-01-26T06:22:06;95248.59;;;-0.52;67.79
7754;BME280;3921;42.266;23.122;2023-01-26T06:24:34;95690.50;;;2.13;67.88
7754;BME280;3921;42.266;23.122;2023-01-26T06:27:01;95443.13;;;0.57;69.07
7754;BME280;3921;42.266;23.122;2023-01-26T06:29:28;95612.88;;;1.85;68.49
7754;BME280;3921;42.266;23.122;2023-01-26T06:34:44;95390.63;;;0.39;67.04
7754;BME280;3921;42.266;23.122;2023-01-26T06:37:11;95088.63;;;-1.18;67.19
7754;BME280;3921;42.266;23.122;2023-01-26T06:39:39;95424.69;;;0.74;66.35
7754;BME280;3921;42.266;23.122;2023-01-26T06:42:07;95264.34;;;0.03;66.08
7754;BME280;3921;42.266;23.122;2023-01-26T06:44:34;95401.75;;;0.78;66.60
7754;BME280;3921;42.266;23.122;2023-01-26T06:47:01;95201.41;;;-0.36;66.95
7754;BME280;3921;42.266;23.122;2023-01-26T06:49:32;95755.69;;;2.95;66.68
7754;BME280;3921;42.266;23.122;2023-01-26T06:52:36;95531.56;;;1.72;67.08
7754;BME280;3921;42.266;23.122;2023-01-26T06:55:15;95633.59;;;2.18;66.64
7754;BME280;3921;42.266;23.122;2023-01-26T06:57:45;95748.94;;;2.90;66.97
7754;BME280;3921;42.266;23.122;2023-01-26T07:00:13;95739.84;;;2.91;67.38
7754;BME280;3921;42.266;23.122;2023-01-26T07:02:40;95397.03;;;0.59;66.76
7754;BME280;3921;42.266;23.122;2023-01-26T07:05:10;95423.47;;;0.87;67.47
7754;BME280;3921;42.266;23.122;2023-01-26T07:07:46;95451.78;;;1.25;67.78
7754;BME280;3921;42.266;23.122;2023-01-26T07:10:26;95426.94;;;1.21;67.59
7754;BME280;3921;42.266;23.122;2023-01-26T07:12:55;95677.72;;;2.58;67.63
7754;BME280;3921;42.266;23.122;2023-01-26T07:15:22;95516.91;;;1.80;67.23
7754;BME280;3921;42.266;23.122;2023-01-26T07:17:49;95252.22;;;0.10;67.85
7754;BME280;3921;42.266;23.122;2023-01-26T07:20:16;95643.19;;;2.64;68.21
7754;BME280;3921;42.266;23.122;2023-01-26T07:22:47;95261.69;;;0.23;68.17
7754;BME280;3921;42.266;23.122;2023-01-26T07:25:27;95329.63;;;0.65;68.51
7754;BME280;3921;42.266;23.122;2023-01-26T07:27:55;95504.56;;;1.81;69.45
7754;BME280;3921;42.266;23.122;2023-01-26T07:30:22;95705.38;;;3.02;69.32
7754;BME280;3921;42.266;23.122;2023-01-26T07:32:49;95415.06;;;1.11;69.78
7754;BME280;3921;42.266;23.122;2023-01-26T07:35:16;95654.47;;;2.53;70.50
7754;BME280;3921;42.266;23.122;2023-01-26T07:37:44;95448.91;;;1.40;69.71
7754;BME280;3921;42.266;23.122;2023-01-26T07:40:12;95700.13;;;2.91;71.23
7754;BME280;3921;42.266;23.122;2023-01-26T07:42:38;95548.34;;;1.82;70.70
7754;BME280;3921;42.266;23.122;2023-01-26T07:45:06;95694.16;;;2.84;70.45
7754;BME280;3921;42.266;23.122;2023-01-26T07:47:33;95288.88;;;0.52;70.86
7754;BME280;3921;42.266;23.122;2023-01-26T07:50:02;95133.56;;;-0.48;71.00
7754;BME280;3921;42.266;23.122;2023-01-26T07:52:31;95770.31;;;3.47;71.62
7754;BME280;3921;42.266;23.122;2023-01-26T07:55:00;95235.25;;;0.21;71.58
7754;BME280;3921;42.266;23.122;2023-01-26T07:57:26;95417.69;;;1.44;72.22
7754;BME280;3921;42.266;23.122;2023-01-26T07:59:55;95389.00;;;1.22;71.91
7754;BME280;3921;42.266;23.122;2023-01-26T08:02:22;95688.97;;;3.07;71.84
7754;BME280;3921;42.266;23.122;2023-01-26T08:04:49;95550.13;;;2.17;71.77
7754;BME280;3921;42.266;23.122;2023-01-26T08:07:17;95540.59;;;2.30;71.66
7754;BME280;3921;42.266;23.122;2023-01-26T08:09:44;95579.25;;;2.54;71.57
7754;BME280;3921;42.266;23.122;2023-01-26T08:12:12;95403.72;;;1.47;71.17
7754;BME280;3921;42.266;23.122;2023-01-26T08:14:39;95619.09;;;2.60;72.79
7754;BME280;3921;42.266;23.122;2023-01-26T08:17:06;95223.06;;;0.27;70.50
7754;BME280;3921;42.266;23.122;2023-01-26T08:19:33;95491.31;;;2.11;71.01
7754;BME280;3921;42.266;23.122;2023-01-26T08:22:00;95299.72;;;0.86;71.12
7754;BME280;3921;42.266;23.122;2023-01-26T08:24:27;95305.91;;;0.71;71.85
7754;BME280;3921;42.266;23.122;2023-01-26T08:26:54;95498.03;;;2.15;72.07
7754;BME280;3921;42.266;23.122;2023-01-26T08:29:23;95521.00;;;2.08;72.21
7754;BME280;3921;42.266;23.122;2023-01-26T08:31:50;95626.09;;;3.06;71.87
7754;BME280;3921;42.266;23.122;2023-01-26T08:34:17;95282.31;;;0.81;70.79
7754;BME280;3921;42.266;23.122;2023-01-26T08:36:46;95740.69;;;3.55;71.39
7754;BME280;3921;42.266;23.122;2023-01-26T08:39:13;95649.22;;;3.05;70.69
7754;BME280;3921;42.266;23.122;2023-01-26T08:41:40;95604.66;;;2.77;70.71
7754;BME280;3921;42.266;23.122;2023-01-26T08:44:08;95513.94;;;2.23;70.87
7754;BME280;3921;42.266;23.122;2023-01-26T08:46:37;95560.66;;;2.39;70.87
7754;BME280;3921;42.266;23.122;2023-01-26T08:49:04;95560.44;;;2.30;71.54
7754;BME280;3921;42.266;23.122;2023-01-26T08:51:30;95479.78;;;1.81;71.75
7754;BME280;3921;42.266;23.122;2023-01-26T08:53:57;95614.13;;;2.60;72.64
7754;BME280;3921;42.266;23.122;2023-01-26T08:56:24;95185.72;;;-0.11;71.82
7754;BME280;3921;42.266;23.122;2023-01-26T08:58:51;95689.22;;;2.84;72.73
7754;BME280;3921;42.266;23.122;2023-01-26T09:01:18;95527.41;;;2.31;72.76
7754;BME280;3921;42.266;23.122;2023-01-26T09:03:46;95546.72;;;2.43;71.59
7754;BME280;3921;42.266;23.122;2023-01-26T09:06:15;95532.59;;;2.40;71.48
7754;BME280;3921;42.266;23.122;2023-01-26T09:08:42;95496.81;;;2.31;71.56
7754;BME280;3921;42.266;23.122;2023-01-26T09:11:09;95152.72;;;0.16;71.23
7754;BME280;3921;42.266;23.122;2023-01-26T09:13:37;95367.91;;;1.66;71.91
7754;BME280;3921;42.266;23.122;2023-01-26T09:16:05;95697.13;;;3.67;72.42
7754;BME280;3921;42.266;23.122;2023-01-26T09:18:33;95363.22;;;1.77;71.86
7754;BME280;3921;42.266;23.122;2023-01-26T09:21:05;95558.56;;;2.86;72.38
7754;BME280;3921;42.266;23.122;2023-01-26T09:23:34;95398.22;;;1.89;71.87
7754;BME280;3921;42.266;23.122;2023-01-26T09:26:01;95370.78;;;1.81;72.98
7754;BME280;3921;42.266;23.122;2023-01-26T09:28:28;95154.75;;;0.59;73.13
7754;BME280;3921;42.266;23.122;2023-01-26T09:30:55;95594.78;;;3.13;74.30
7754;BME280;3921;42.266;23.122;2023-01-26T09:33:25;95680.41;;;3.96;74.26
7754;BME280;3921;42.266;23.122;2023-01-26T09:35:55;95710.16;;;3.93;74.39
7754;BME280;3921;42.266;23.122;2023-01-26T09:38:26;95658.75;;;3.92;74.91
7754;BME280;3921;42.266;23.122;2023-01-26T09:41:03;95249.91;;;1.35;74.20
7754;BME280;3921;42.266;23.122;2023-01-26T09:43:37;95434.63;;;2.56;74.04
7754;BME280;3921;42.266;23.122;2023-01-26T09:46:19;95325.75;;;1.96;74.65
7754;BME280;3921;42.266;23.122;2023-01-26T09:48:54;95662.25;;;4.00;73.78
7754;BME280;3921;42.266;23.122;2023-01-26T09:51:27;95383.50;;;2.28;73.68
7754;BME280;3921;42.266;23.122;2023-01-26T09:54:02;95439.16;;;2.74;73.83
7754;BME280;3921;42.266;23.122;2023-01-26T09:56:31;95149.25;;;1.01;73.09
7754;BME280;3921;42.266;23.122;2023-01-26T09:59:03;95290.00;;;1.86;72.94
7754;BME280;3921;42.266;23.122;2023-01-26T10:01:37;95521.50;;;3.27;74.33
7754;BME280;3921;42.266;23.122;2023-01-26T10:04:12;95151.16;;;0.79;72.24
7754;BME280;3921;42.266;23.122;2023-01-26T10:06:42;95249.66;;;1.57;72.95
7754;BME280;3921;42.266;23.122;2023-01-26T10:09:15;95421.81;;;2.74;72.11
7754;BME280;3921;42.266;23.122;2023-01-26T10:11:45;95498.00;;;3.14;71.91
7754;BME280;3921;42.266;23.122;2023-01-26T10:14:18;95083.03;;;0.58;70.21
7754;BME280;3921;42.266;23.122;2023-01-26T10:16:48;95442.97;;;2.95;71.32
7754;BME280;3921;42.266;23.122;2023-01-26T10:19:21;95277.78;;;1.94;71.62
7754;BME280;3921;42.266;23.122;2023-01-26T10:21:55;95172.09;;;1.24;71.57
7754;BME280;3921;42.266;23.122;2023-01-26T10:24:26;95064.31;;;0.67;72.08
7754;BME280;3921;42.266;23.122;2023-01-26T10:26:56;95269.59;;;1.97;71.83
7754;BME280;3921;42.266;23.122;2023-01-26T10:29:23;95601.72;;;3.98;72.33
7754;BME280;3921;42.266;23.122;2023-01-26T10:31:50;95411.50;;;2.93;72.04
7754;BME280;3921;42.266;23.122;2023-01-26T10:34:21;95554.34;;;3.53;71.59
7754;BME280;3921;42.266;23.122;2023-01-26T10:37:00;95240.81;;;2.02;70.62
7754;BME280;3921;42.266;23.122;2023-01-26T10:39:29;95273.47;;;2.22;70.50
7754;BME280;3921;42.266;23.122;2023-01-26T10:41:57;95496.94;;;3.79;69.95
7754;BME280;3921;42.266;23.122;2023-01-26T10:44:30;95012.38;;;0.66;69.13
7754;BME280;3921;42.266;23.122;2023-01-26T10:47:04;95504.41;;;3.80;69.32
7754;BME280;3921;42.266;23.122;2023-01-26T10:49:32;95217.94;;;2.13;68.56
7754;BME280;3921;42.266;23.122;2023-01-26T10:52:07;95082.25;;;1.26;68.97
7754;BME280;3921;42.266;23.122;2023-01-26T10:54:36;95283.03;;;2.43;69.41
7754;BME280;3921;42.266;23.122;2023-01-26T10:57:05;95289.22;;;2.61;69.07
7754;BME280;3921;42.266;23.122;2023-01-26T10:59:43;95514.72;;;3.98;68.54
7754;BME280;3921;42.266;23.122;2023-01-26T11:02:22;95463.69;;;3.75;69.10
7754;BME280;3921;42.266;23.122;2023-01-26T11:07:44;95149.84;;;1.98;68.84
7754;BME280;3921;42.266;23.122;2023-01-26T11:10:34;95277.84;;;2.70;67.90
7754;BME280;3921;42.266;23.122;2023-01-26T11:13:12;95064.38;;;1.38;68.11
7754;BME280;3921;42.266;23.122;2023-01-26T11:15:42;95146.41;;;1.91;68.83
7754;BME280;3921;42.266;23.122;2023-01-26T11:18:23;95497.56;;;4.12;69.23
7754;BME280;3921;42.266;23.122;2023-01-26T11:20:56;94971.66;;;0.86;68.08
7754;BME280;3921;42.266;23.122;2023-01-26T11:23:35;95411.94;;;3.54;69.43
7754;BME280;3921;42.266;23.122;2023-01-26T11:30:01;95480.84;;;4.05;69.90
7754;BME280;3921;42.266;23.122;2023-01-26T11:32:38;95362.63;;;3.30;69.55
7754;BME280;3921;42.266;23.122;2023-01-26T11:35:14;95406.38;;;3.66;69.38
7754;BME280;3921;42.266;23.122;2023-01-26T11:37:45;95038.22;;;1.51;68.61
7754;BME280;3921;42.266;23.122;2023-01-26T11:40:31;95371.09;;;3.40;69.15
7754;BME280;3921;42.266;23.122;2023-01-26T11:43:12;95035.72;;;1.49;68.99
7754;BME280;3921;42.266;23.122;2023-01-26T11:46:03;95120.47;;;2.13;69.12
7754;BME280;3921;42.266;23.122;2023-01-26T11:48:40;95373.34;;;3.71;69.16
7754;BME280;3921;42.266;23.122;2023-01-26T11:51:17;94821.53;;;0.08;69.54
7754;BME280;3921;42.266;23.122;2023-01-26T11:54:05;95274.34;;;3.04;69.83
7754;BME280;3921;42.266;23.122;2023-01-26T11:56:47;94900.06;;;0.92;69.91
7754;BME280;3921;42.266;23.122;2023-01-26T11:59:17;95044.66;;;1.82;70.03
7754;BME280;3921;42.266;23.122;2023-01-26T12:01:50;94954.19;;;1.57;69.62
7754;BME280;3921;42.266;23.122;2023-01-26T12:04:21;95366.78;;;3.75;69.18
7754;BME280;3921;42.266;23.122;2023-01-26T12:06:52;95295.78;;;3.42;69.12
7754;BME280;3921;42.266;23.122;2023-01-26T12:09:22;95131.03;;;2.47;68.57
7754;BME280;3921;42.266;23.122;2023-01-26T12:12:00;95374.34;;;4.28;68.88
7754;BME280;3921;42.266;23.122;2023-01-26T12:14:35;95304.06;;;3.88;69.38
7754;BME280;3921;42.266;23.122;2023-01-26T12:17:19;94968.19;;;1.55;69.52
7754;BME280;3921;42.266;23.122;2023-01-26T12:19:55;94930.75;;;1.43;69.57
7754;BME280;3921;42.266;23.122;2023-01-26T12:22:31;94955.97;;;1.66;69.39
7754;BME280;3921;42.266;23.122;2023-01-26T12:25:02;95156.19;;;3.10;69.31
7754;BME280;3921;42.266;23.122;2023-01-26T12:27:35;94901.03;;;1.41;69.38
7754;BME280;3921;42.266;23.122;2023-01-26T12:30:11;94860.94;;;1.15;69.25
7754;BME280;3921;42.266;23.122;2023-01-26T12:32:48;95204.50;;;3.29;69.26
7754;BME280;3921;42.266;23.122;2023-01-26T12:35:20;95347.03;;;4.31;68.87
7754;BME280;3921;42.266;23.122;2023-01-26T12:37:59;95337.91;;;4.30;69.10
7754;BME280;3921;42.266;23.122;2023-01-26T12:40:32;95293.47;;;3.98;69.45
7754;BME280;3921;42.266;23.122;2023-01-26T12:43:14;95045.75;;;2.38;67.90
7754;BME280;3921;42.266;23.122;2023-01-26T12:45:47;95335.06;;;4.07;68.54
7754;BME280;3921;42.266;23.122;2023-01-26T12:48:20;95116.09;;;2.89;68.30
7754;BME280;3921;42.266;23.122;2023-01-26T12:50:51;95049.84;;;2.36;67.46
7754;BME280;3921;42.266;23.122;2023-01-26T12:53:23;95117.44;;;2.70;69.24
7754;BME280;3921;42.266;23.122;2023-01-26T12:55:59;95340.22;;;4.21;69.38
7754;BME280;3921;42.266;23.122;2023-01-26T12:58:34;95229.38;;;3.32;69.11
7754;BME280;3921;42.266;23.122;2023-01-26T13:01:07;94993.66;;;1.93;69.35
7754;BME280;3921;42.266;23.122;2023-01-26T13:03:39;95328.25;;;3.97;69.84
7754;BME280;3921;42.266;23.122;2023-01-26T13:06:20;95126.53;;;2.71;70.05
7754;BME280;3921;42.266;23.122;2023-01-26T13:09:02;95346.28;;;3.87;70.56
7754;BME280;3921;42.266;23.122;2023-01-26T13:11:42;94872.91;;;0.97;70.65
7754;BME280;3921;42.266;23.122;2023-01-26T13:14:36;94965.22;;;1.73;69.39
7754;BME280;3921;42.266;23.122;2023-01-26T13:20:40;95319.69;;;3.83;70.10
7754;BME280;3921;42.266;23.122;2023-01-26T13:23:41;95327.22;;;3.84;69.76
7754;BME280;3921;42.266;23.122;2023-01-26T13:26:14;95321.34;;;3.82;70.17
7754;BME280;3921;42.266;23.122;2023-01-26T13:28:42;95111.06;;;2.40;69.12
7754;BME280;3921;42.266;23.122;2023-01-26T13:31:10;95064.50;;;2.24;69.18
7754;BME280;3921;42.266;23.122;2023-01-26T13:33:37;95323.13;;;3.89;68.19
7754;BME280;3921;42.266;23.122;2023-01-26T13:36:15;94803.53;;;0.50;67.70
7754;BME280;3921;42.266;23.122;2023-01-26T13:38:50;95292.78;;;3.59;68.52
7754;BME280;3921;42.266;23.122;2023-01-26T13:41:21;95216.81;;;3.22;68.68
7754;BME280;3921;42.266;23.122;2023-01-26T13:49:03;95210.81;;;3.10;68.28
7754;BME280;3921;42.266;23.122;2023-01-26T13:51:33;94846.06;;;0.74;68.12
7754;BME280;3921;42.266;23.122;2023-01-26T13:54:02;95032.38;;;1.88;68.14
7754;BME280;3921;42.266;23.122;2023-01-26T13:56:32;95087.25;;;2.49;68.15
7754;BME280;3921;42.266;23.122;2023-01-26T13:59:04;95165.81;;;2.93;68.61
7754;BME280;3921;42.266;23.122;2023-01-26T14:01:32;94808.94;;;0.71;68.32
7754;BME280;3921;42.266;23.122;2023-01-26T14:04:04;95231.00;;;3.30;68.30
7754;BME280;3921;42.266;23.122;2023-01-26T14:06:33;95061.44;;;2.37;68.00